Time;durP1;ratioP1;P1;durP2;ratioP2;P2;SDS_P1;SDS_P2;PMS_P1;PMS_P2;Temp;Humidity;BMP_temperature;BMP_pressure;BME280_temperature;BME280_humidity;BME280_pressure;Samples;Min_cycle;Max_cycle;Signal;HPM_P1;HPM_P2
2023/07/01 00:01:02;;;;;;;10.13;3.30;;;;;;;12.79;91.43;98846.19;1743020;81;20979;-63
2023/07/01 00:03:30;;;;;;;5.90;2.98;;;;;;;12.79;91.43;98846.19;1751559;81;21014;-63
2023/07/01 00:05:58;;;;;;;9.03;2.80;;;;;;;12.79;91.30;98847.50;1757206;81;21197;-62
2023/07/01 00:08:25;;;;;;;6.33;3.08;;;;;;;12.78;91.08;98839.29;1755298;81;21090;-64
2023/07/01 00:10:52;;;;;;;5.03;2.70;;;;;;;12.71;91.16;98847.55;1747439;80;21006;-65
2023/07/01 00:13:19;;;;;;;4.40;2.50;;;;;;;12.72;91.27;98847.94;1724062;81;20998;-63
2023/07/01 00:15:45;;;;;;;5.23;2.73;;;;;;;12.72;91.24;98847.10;1744795;81;21055;-63
2023/07/01 00:18:12;;;;;;;3.95;2.35;;;;;;;12.70;91.16;98848.50;1766321;80;21014;-62
2023/07/01 00:20:38;;;;;;;6.65;2.95;;;;;;;12.66;91.09;98843.58;1763993;80;21570;-63
2023/07/01 00:23:04;;;;;;;7.17;2.83;;;;;;;12.55;91.21;98828.64;1751341;81;20983;-62
2023/07/01 00:25:31;;;;;;;4.75;2.45;;;;;;;12.55;91.13;98846.97;1762839;80;21053;-62
2023/07/01 00:27:57;;;;;;;6.45;3.00;;;;;;;12.51;91.15;98837.63;1737474;80;20997;-63
2023/07/01 00:30:23;;;;;;;6.10;2.62;;;;;;;12.43;91.23;98837.33;1729764;82;21069;-63
2023/07/01 00:32:49;;;;;;;8.98;3.20;;;;;;;12.39;91.31;98843.73;1750946;82;21560;-63
2023/07/01 00:35:16;;;;;;;8.10;2.70;;;;;;;12.35;91.45;98837.02;1731291;81;21644;-63
2023/07/01 00:37:42;;;;;;;6.78;2.50;;;;;;;12.29;91.57;98843.50;1759691;81;21157;-63
2023/07/01 00:40:10;;;;;;;7.43;3.50;;;;;;;12.25;91.53;98842.88;1752327;81;21045;-63
2023/07/01 00:42:37;;;;;;;4.85;2.52;;;;;;;12.21;91.65;98840.56;1752863;81;20991;-63
2023/07/01 00:45:04;;;;;;;4.33;2.67;;;;;;;12.20;91.58;98844.97;1759214;81;20992;-63
2023/07/01 00:47:31;;;;;;;4.35;2.72;;;;;;;12.17;91.49;98844.34;1731614;82;21055;-63
2023/07/01 00:49:57;;;;;;;5.35;3.10;;;;;;;12.13;91.53;98843.73;1749772;81;21018;-63
2023/07/01 00:52:24;;;;;;;7.20;3.08;;;;;;;12.08;91.66;98836.17;1770640;80;21145;-63
2023/07/01 00:54:50;;;;;;;5.53;2.77;;;;;;;12.08;91.82;98835.34;1749482;81;22088;-63
2023/07/01 00:57:17;;;;;;;6.22;3.60;;;;;;;12.06;91.78;98834.60;1731755;82;21073;-63
2023/07/01 00:59:45;;;;;;;8.90;2.42;;;;;;;12.04;91.90;98829.94;1754169;80;21026;-63
2023/07/01 01:02:15;;;;;;;6.20;2.65;;;;;;;11.98;91.85;98831.66;1748815;81;20950;-63
2023/07/01 01:04:48;;;;;;;4.85;2.95;;;;;;;11.96;91.90;98832.23;1756489;81;21070;-63
2023/07/01 01:07:21;;;;;;;5.10;2.80;;;;;;;11.93;91.90;98828.52;1742213;81;21031;-62
2023/07/01 01:10:06;;;;;;;6.85;4.12;;;;;;;11.86;92.02;98826.31;1762921;80;21047;-62
2023/07/01 01:12:35;;;;;;;10.68;9.35;;;;;;;11.79;92.22;98825.03;1753089;81;20990;-63
2023/07/01 01:15:02;;;;;;;15.90;12.60;;;;;;;11.75;92.25;98831.39;1742150;81;21491;-63
2023/07/01 01:17:31;;;;;;;7.97;6.00;;;;;;;11.77;92.01;98821.67;1752584;81;21076;-63
2023/07/01 01:20:13;;;;;;;5.00;3.98;;;;;;;11.74;92.03;98818.43;1749954;81;20991;-63
2023/07/01 01:23:08;;;;;;;7.70;4.50;;;;;;;11.68;92.29;98819.67;1733489;82;21612;-63
2023/07/01 01:25:56;;;;;;;7.17;3.62;;;;;;;11.62;92.19;98827.89;1733960;82;21054;-63
2023/07/01 01:28:24;;;;;;;5.17;3.12;;;;;;;11.57;92.45;98824.77;1757105;81;21075;-62
2023/07/01 01:30:51;;;;;;;6.28;3.22;;;;;;;11.56;92.46;98817.84;1769249;80;21052;-63
2023/07/01 01:33:17;;;;;;;5.42;3.45;;;;;;;11.53;92.52;98818.05;1735618;81;21015;-63
2023/07/01 01:35:44;;;;;;;5.12;3.10;;;;;;;11.51;92.49;98812.08;1756641;80;21030;-64
2023/07/01 01:38:21;;;;;;;4.03;3.05;;;;;;;11.49;92.57;98813.98;1724268;82;21518;-63
2023/07/01 01:40:51;;;;;;;3.00;2.70;;;;;;;11.51;92.54;98822.53;1724383;82;20992;-63
2023/07/01 01:43:39;;;;;;;5.58;2.83;;;;;;;11.49;92.29;98817.90;1726135;82;21061;-63
2023/07/01 01:46:07;;;;;;;6.28;3.10;;;;;;;11.45;92.22;98821.63;1720377;82;21038;-63
2023/07/01 01:48:36;;;;;;;5.05;2.33;;;;;;;11.40;92.25;98812.80;1724108;82;21203;-63
2023/07/01 01:51:04;;;;;;;5.75;3.33;;;;;;;11.38;92.29;98806.83;1725409;82;21026;-63
2023/07/01 01:53:32;;;;;;;9.68;2.92;;;;;;;11.37;92.35;98803.38;1722239;82;21617;-63
2023/07/01 01:56:00;;;;;;;6.58;3.20;;;;;;;11.36;92.36;98806.91;1722052;82;21044;-62
2023/07/01 01:58:26;;;;;;;;;;;;;;;11.35;92.40;98804.42;1741119;82;21018;-62
2023/07/01 02:00:53;;;;;;;6.28;3.20;;;;;;;11.33;92.70;98804.50;1735431;82;20191;-63
2023/07/01 02:03:19;;;;;;;4.20;2.83;;;;;;;11.33;92.72;98807.12;1738224;82;20990;-63
2023/07/01 02:05:45;;;;;;;7.67;2.90;;;;;;;11.34;92.54;98811.42;1733482;82;21041;-63
2023/07/01 02:08:12;;;;;;;7.22;3.60;;;;;;;11.30;92.49;98811.24;1734158;82;21102;-62
2023/07/01 02:10:38;;;;;;;5.95;2.70;;;;;;;11.30;92.75;98812.55;1739843;82;21037;-62
2023/07/01 02:13:05;;;;;;;6.70;2.95;;;;;;;11.35;93.16;98807.86;1737375;82;21078;-63
2023/07/01 02:15:32;;;;;;;5.15;3.22;;;;;;;11.36;93.03;98812.14;1738355;82;21004;-63
2023/07/01 02:17:58;;;;;;;5.53;2.60;;;;;;;11.40;93.30;98808.41;1737549;82;21026;-63
2023/07/01 02:20:25;;;;;;;3.05;2.55;;;;;;;11.45;93.35;98807.26;1751724;81;20977;-64
2023/07/01 02:22:51;;;;;;;5.97;2.50;;;;;;;11.48;93.41;98805.75;1733789;81;21119;-63
2023/07/01 02:25:18;;;;;;;9.03;3.62;;;;;;;11.52;93.36;98807.23;1725570;81;21017;-63
2023/07/01 02:27:46;;;;;;;4.67;2.92;;;;;;;11.54;93.21;98804.03;1711157;82;21038;-62
2023/07/01 02:30:13;;;;;;;4.53;2.50;;;;;;;11.57;93.08;98802.08;1720463;83;21516;-64
2023/07/01 02:32:41;;;;;;;7.10;2.93;;;;;;;11.57;92.98;98804.69;1729056;82;21010;-63
2023/07/01 02:35:09;;;;;;;4.90;2.45;;;;;;;11.54;92.80;98801.42;1725710;82;21078;-63
2023/07/01 02:37:35;;;;;;;3.83;2.42;;;;;;;11.49;93.16;98802.22;1722200;81;21038;-63
2023/07/01 02:40:04;;;;;;;7.95;2.80;;;;;;;11.49;93.46;98798.30;1716218;81;21609;-62
2023/07/01 02:42:31;;;;;;;10.28;3.17;;;;;;;11.47;93.38;98793.62;1717281;81;20978;-63
2023/07/01 02:44:58;;;;;;;5.50;2.70;;;;;;;11.46;93.35;98789.34;1729642;80;21115;-63
2023/07/01 02:47:24;;;;;;;6.08;2.90;;;;;;;11.45;93.38;98792.88;1703150;82;21049;-63
2023/07/01 02:49:50;;;;;;;5.65;2.37;;;;;;;11.41;93.25;98791.78;1711088;82;22769;-63
2023/07/01 02:52:17;;;;;;;6.87;2.87;;;;;;;11.38;93.20;98794.59;1730809;80;21493;-63
2023/07/01 02:54:43;;;;;;;5.92;3.10;;;;;;;11.37;93.51;98795.55;1735171;80;21557;-63
2023/07/01 02:57:10;;;;;;;6.47;3.20;;;;;;;11.37;93.44;98802.52;1708520;82;21047;-62
2023/07/01 02:59:37;;;;;;;4.70;2.47;;;;;;;11.35;93.45;98794.80;1700378;82;21096;-63
2023/07/01 03:02:05;;;;;;;14.43;3.27;;;;;;;11.34;93.50;98798.36;1727304;81;21665;-63
2023/07/01 03:04:33;;;;;;;8.00;2.90;;;;;;;11.34;93.40;98798.36;1725669;81;21048;-63
2023/07/01 03:07:00;;;;;;;8.40;2.77;;;;;;;11.33;93.52;98794.05;1714717;81;21599;-63
2023/07/01 03:09:27;;;;;;;10.08;2.87;;;;;;;11.35;93.65;98793.49;1689418;83;21041;-63
2023/07/01 03:11:53;;;;;;;;;;;;;;;11.36;93.82;98793.84;1711994;82;21085;-63
2023/07/01 03:14:20;;;;;;;5.80;2.70;;;;;;;11.37;93.76;98794.23;1729491;80;20144;-63
2023/07/01 03:16:47;;;;;;;6.60;3.10;;;;;;;11.39;93.97;98791.03;1733700;80;21001;-63
2023/07/01 03:19:13;;;;;;;6.87;2.60;;;;;;;11.44;94.13;98790.74;1730295;80;21042;-63
2023/07/01 03:21:41;;;;;;;8.05;2.98;;;;;;;11.51;94.28;98792.03;1708377;82;21010;-63
2023/07/01 03:24:08;;;;;;;4.75;2.80;;;;;;;11.60;94.27;98782.73;1710105;82;21088;-63
2023/07/01 03:26:35;;;;;;;5.28;2.90;;;;;;;11.68;94.18;98790.91;1706171;82;21071;-62
2023/07/01 03:29:02;;;;;;;;;;;;;;;11.76;94.22;98783.39;1730865;80;21063;-63
2023/07/01 03:31:28;;;;;;;5.85;2.70;;;;;;;11.82;94.31;98785.59;1712189;81;20150;-64
2023/07/01 03:33:55;;;;;;;4.65;2.67;;;;;;;11.91;94.30;98785.95;1714033;82;21074;-63
2023/07/01 03:36:21;;;;;;;4.25;2.87;;;;;;;11.98;94.33;98784.58;1747343;80;21087;-64
2023/07/01 03:38:49;;;;;;;4.47;2.70;;;;;;;12.06;94.31;98786.20;1753532;81;21121;-63
2023/07/01 03:41:15;;;;;;;5.42;2.70;;;;;;;12.11;94.36;98780.19;1731364;82;20976;-65
2023/07/01 03:43:41;;;;;;;5.03;2.40;;;;;;;12.18;94.29;98784.03;1738105;81;21454;-64
2023/07/01 03:46:09;;;;;;;5.70;2.47;;;;;;;12.24;94.25;98787.56;1757014;81;21755;-62
2023/07/01 03:48:35;;;;;;;5.58;2.35;;;;;;;12.29;94.42;98785.48;1771647;80;21021;-62
2023/07/01 03:51:01;;;;;;;10.13;2.83;;;;;;;12.37;94.45;98788.02;1745287;81;21001;-63
2023/07/01 03:53:28;;;;;;;7.08;2.25;;;;;;;12.45;94.51;98783.09;1749256;81;21057;-63
2023/07/01 03:55:54;;;;;;;6.70;2.40;;;;;;;12.53;94.53;98780.30;1757107;81;21075;-62
2023/07/01 03:58:24;;;;;;;2.60;1.80;;;;;;;12.60;94.57;98781.99;1742836;81;21081;-62
2023/07/01 04:00:56;;;;;;;5.47;2.02;;;;;;;12.67;94.65;98776.70;1768659;80;20990;-63
2023/07/01 04:03:23;;;;;;;4.97;2.15;;;;;;;12.79;94.79;98778.08;1741437;81;21989;-63
2023/07/01 04:05:52;;;;;;;6.42;2.25;;;;;;;12.90;94.61;98765.05;1759441;81;21077;-62
2023/07/01 04:08:23;;;;;;;5.42;2.55;;;;;;;12.90;94.61;98765.05;1755247;81;20999;-63
2023/07/01 04:10:47;;;;;;;4.50;2.02;;;;;;;13.25;94.78;98770.81;1734164;81;21014;-62
2023/07/01 04:13:13;;;;;;;4.45;2.40;;;;;;;13.25;94.78;98770.81;1760147;80;21153;-64
2023/07/01 04:15:42;;;;;;;7.00;2.60;;;;;;;13.33;94.80;98776.36;1754518;80;21062;-63
2023/07/01 04:18:08;;;;;;;4.55;1.92;;;;;;;13.43;94.72;98776.06;1763931;80;21111;-63
2023/07/01 04:20:35;;;;;;;3.27;2.07;;;;;;;13.52;94.79;98779.30;1765050;80;20994;-63
2023/07/01 04:23:01;;;;;;;5.10;2.42;;;;;;;13.60;94.87;98772.18;1768157;80;21101;-63
2023/07/01 04:25:28;;;;;;;5.28;1.57;;;;;;;13.72;94.93;98775.66;1739185;81;21050;-63
2023/07/01 04:27:55;;;;;;;5.62;2.47;;;;;;;13.82;94.86;98768.78;1742046;81;21081;-63
2023/07/01 04:30:21;;;;;;;5.47;1.85;;;;;;;13.90;94.77;98765.10;1742536;81;21065;-64
2023/07/01 04:32:48;;;;;;;3.58;1.62;;;;;;;14.00;94.86;98769.16;1744797;81;21032;-62
2023/07/01 04:35:14;;;;;;;3.25;1.65;;;;;;;14.10;94.89;98763.57;1752282;80;21003;-63
2023/07/01 04:37:41;;;;;;;6.60;2.00;;;;;;;14.23;94.87;98775.29;1754369;80;21489;-64
2023/07/01 04:40:09;;;;;;;5.83;2.30;;;;;;;14.40;95.00;98768.72;1747362;81;21013;-63
2023/07/01 04:42:35;;;;;;;3.42;1.62;;;;;;;14.57;94.95;98766.12;1739281;80;21668;-63
2023/07/01 04:45:02;;;;;;;6.70;2.05;;;;;;;14.78;95.04;98765.70;1738887;82;21011;-64
2023/07/01 04:47:29;;;;;;;8.33;2.10;;;;;;;14.99;95.08;98758.73;1752865;81;21069;-64
2023/07/01 04:49:56;;;;;;;6.80;1.80;;;;;;;15.21;94.76;98762.27;1751043;81;21004;-63
2023/07/01 04:52:24;;;;;;;5.28;2.12;;;;;;;15.35;94.54;98759.34;1750843;80;21096;-64
2023/07/01 04:54:51;;;;;;;3.75;1.95;;;;;;;15.43;94.17;98761.31;1725831;82;21064;-63
2023/07/01 04:57:18;;;;;;;4.12;1.77;;;;;;;15.64;94.75;98756.08;1728427;82;21018;-64
2023/07/01 04:59:47;;;;;;;3.27;1.47;;;;;;;15.87;94.74;98757.63;1726112;82;21083;-63
2023/07/01 05:02:14;;;;;;;3.83;1.57;;;;;;;16.06;94.36;98757.41;1728787;82;21019;-65
2023/07/01 05:04:40;;;;;;;4.58;1.60;;;;;;;16.29;94.37;98762.84;1726699;82;21002;-63
2023/07/01 05:07:07;;;;;;;4.12;1.30;;;;;;;16.50;94.19;98756.70;1745773;81;21022;-63
2023/07/01 05:09:33;;;;;;;3.22;1.70;;;;;;;16.64;93.61;98758.96;1727029;82;21044;-64
2023/07/01 05:12:00;;;;;;;3.87;1.40;;;;;;;16.85;94.08;98758.06;1723986;82;21075;-64
2023/07/01 05:14:27;;;;;;;5.37;1.50;;;;;;;17.04;93.65;98755.45;1745054;81;21088;-63
2023/07/01 05:16:53;;;;;;;5.37;1.72;;;;;;;17.20;93.58;98754.92;1722544;82;21069;-63
2023/07/01 05:19:19;;;;;;;9.03;1.80;;;;;;;17.34;92.86;98758.95;1726521;82;21115;-63
2023/07/01 05:21:51;;;;;;;3.05;1.50;;;;;;;17.40;92.62;98764.50;1722966;82;20965;-63
2023/07/01 05:24:18;;;;;;;6.60;2.08;;;;;;;17.49;92.09;98760.19;1727550;82;21109;-63
2023/07/01 05:26:47;;;;;;;4.25;1.72;;;;;;;17.53;91.96;98758.95;1727964;82;21018;-63
2023/07/01 05:29:14;;;;;;;3.80;1.62;;;;;;;17.60;92.07;98752.13;1727015;82;21055;-64
2023/07/01 05:31:40;;;;;;;3.15;1.30;;;;;;;17.70;92.27;98751.27;1726099;82;21498;-64
2023/07/01 05:34:06;;;;;;;3.40;1.30;;;;;;;17.82;91.96;98756.78;1724505;82;21644;-65
2023/07/01 05:36:33;;;;;;;3.87;1.82;;;;;;;17.91;92.12;98754.60;1747782;81;21053;-63
2023/07/01 05:39:00;;;;;;;3.17;1.05;;;;;;;18.05;91.94;98751.50;1750092;81;21117;-65
2023/07/01 05:41:27;;;;;;;9.60;1.82;;;;;;;18.26;91.68;98758.37;1749887;81;21175;-65
2023/07/01 05:43:54;;;;;;;3.40;1.40;;;;;;;18.40;91.90;98757.93;1748456;81;21052;-64
2023/07/01 05:46:21;;;;;;;2.25;1.05;;;;;;;18.52;90.77;98751.46;1753203;81;21079;-63
2023/07/01 05:48:48;;;;;;;5.25;1.72;;;;;;;18.51;90.01;98748.48;1749211;81;21053;-64
2023/07/01 05:51:14;;;;;;;3.22;1.25;;;;;;;18.55;90.67;98754.30;1748332;81;21580;-65
2023/07/01 05:53:40;;;;;;;4.05;1.50;;;;;;;18.68;90.19;98750.83;1748306;81;21664;-64
2023/07/01 05:56:06;;;;;;;2.98;1.20;;;;;;;18.71;89.13;98749.70;1747214;81;21006;-64
2023/07/01 05:58:33;;;;;;;3.05;1.00;;;;;;;18.60;88.64;98746.77;1752864;81;21054;-64
2023/07/01 06:00:59;;;;;;;5.45;1.57;;;;;;;18.58;88.48;98751.36;1750969;81;21150;-63
2023/07/01 06:03:25;;;;;;;3.33;1.37;;;;;;;18.51;88.76;98745.84;1749848;81;21007;-64
2023/07/01 06:05:51;;;;;;;4.75;1.47;;;;;;;18.53;88.24;98750.47;1750893;81;21033;-63
2023/07/01 06:08:18;;;;;;;5.57;1.43;;;;;;;18.54;88.26;98745.55;1749500;81;21155;-65
2023/07/01 06:10:44;;;;;;;6.15;1.77;;;;;;;18.61;88.37;98747.59;1749115;81;21643;-64
2023/07/01 06:13:10;;;;;;;7.17;1.60;;;;;;;18.70;87.69;98740.09;1749908;81;21108;-64
2023/07/01 06:15:37;;;;;;;5.17;1.50;;;;;;;18.86;87.35;98742.95;1748806;81;21051;-64
2023/07/01 06:18:03;;;;;;;7.25;1.65;;;;;;;19.08;87.70;98740.87;1748042;81;21024;-63
2023/07/01 06:20:29;;;;;;;2.67;1.07;;;;;;;19.34;87.76;98739.11;1750368;81;20938;-64
2023/07/01 06:23:03;;;;;;;6.62;2.05;;;;;;;19.72;88.01;98743.76;1747283;81;22687;-64
2023/07/01 06:25:27;;;;;;;6.37;1.40;;;;;;;20.04;87.19;98739.65;1746371;81;21053;-63
2023/07/01 06:27:53;;;;;;;2.87;1.37;;;;;;;20.26;86.06;98740.43;1746626;81;21101;-65
2023/07/01 06:30:19;;;;;;;2.90;1.30;;;;;;;20.40;85.61;98740.33;1753433;81;21592;-64
2023/07/01 06:32:46;;;;;;;4.28;1.40;;;;;;;20.43;85.27;98737.86;1747382;81;21049;-63
2023/07/01 06:35:12;;;;;;;3.12;1.42;;;;;;;20.56;84.71;98740.94;1747668;81;21085;-66
2023/07/01 06:37:39;;;;;;;5.87;1.52;;;;;;;20.68;85.12;98739.64;1737030;81;21030;-63
2023/07/01 06:40:07;;;;;;;4.70;1.42;;;;;;;20.87;85.34;98751.81;1732702;81;21037;-63
2023/07/01 06:42:35;;;;;;;3.40;1.42;;;;;;;21.10;84.78;98752.02;1730620;82;20970;-62
2023/07/01 06:45:02;;;;;;;4.10;1.37;;;;;;;21.29;84.04;98747.41;1725567;81;21085;-62
2023/07/01 06:47:29;;;;;;;5.60;1.30;;;;;;;21.43;83.41;98750.27;1732735;81;20982;-62
2023/07/01 06:49:55;;;;;;;6.63;1.20;;;;;;;21.55;83.73;98750.75;1733875;82;21002;-63
2023/07/01 06:52:21;;;;;;;9.33;1.03;;;;;;;21.81;83.83;98747.91;1732087;82;21003;-62
2023/07/01 06:54:49;;;;;;;9.10;1.70;;;;;;;22.17;83.02;98741.37;1736537;82;21129;-64
2023/07/01 06:57:17;;;;;;;5.33;1.10;;;;;;;22.64;83.49;98744.05;1733803;82;20982;-66
2023/07/01 06:59:44;;;;;;;5.20;1.10;;;;;;;23.15;83.10;98744.95;1735827;82;21017;-62
2023/07/01 07:02:12;;;;;;;6.47;1.20;;;;;;;23.51;82.29;98744.36;1733923;81;21720;-65
2023/07/01 07:04:43;;;;;;;4.00;1.45;;;;;;;23.73;81.55;98736.86;1731681;82;21144;-62
2023/07/01 07:07:07;;;;;;;3.85;1.45;;;;;;;23.96;80.57;98738.64;1729536;82;21078;-65
2023/07/01 07:09:33;;;;;;;6.70;2.13;;;;;;;24.21;80.53;98736.03;1733347;82;21037;-64
2023/07/01 07:11:59;;;;;;;9.15;1.30;;;;;;;24.61;80.33;98737.09;1729282;82;21045;-64
2023/07/01 07:14:25;;;;;;;9.38;1.55;;;;;;;24.69;79.43;98735.14;1732104;82;21055;-64
2023/07/01 07:16:52;;;;;;;4.90;1.47;;;;;;;24.87;78.49;98732.56;1735809;82;20935;-64
2023/07/01 07:19:19;;;;;;;5.05;1.10;;;;;;;24.87;77.56;98729.41;1752128;81;21042;-64
2023/07/01 07:21:45;;;;;;;7.55;1.60;;;;;;;25.13;78.13;98727.52;1716278;82;21115;-63
2023/07/01 07:24:13;;;;;;;2.87;1.22;;;;;;;25.90;77.54;98721.94;1713895;82;21159;-63
2023/07/01 07:26:42;;;;;;;7.10;1.12;;;;;;;26.51;77.27;98719.42;1752916;81;21047;-62
2023/07/01 07:29:08;;;;;;;8.50;1.20;;;;;;;27.57;78.17;98709.99;1753610;81;21060;-63
2023/07/01 07:31:54;;;;;;;3.22;1.20;;;;;;;28.63;76.57;98711.14;1749180;81;20987;-64
2023/07/01 07:34:25;;;;;;;3.33;1.20;;;;;;;29.50;74.02;98711.44;1677214;84;21094;-63
2023/07/01 07:36:52;;;;;;;3.62;1.55;;;;;;;30.21;72.12;98721.45;1657019;85;21617;-63
2023/07/01 07:39:18;;;;;;;4.92;1.30;;;;;;;31.06;72.52;98715.23;1658812;85;21454;-63
2023/07/01 07:41:45;;;;;;;4.70;1.27;;;;;;;32.15;71.94;98713.04;1659195;85;21648;-64
2023/07/01 07:44:12;;;;;;;5.67;1.27;;;;;;;33.10;70.64;98713.07;1688996;84;21084;-63
2023/07/01 07:46:39;;;;;;;5.67;1.50;;;;;;;33.43;68.78;98716.34;1687999;84;21053;-67
2023/07/01 07:49:06;;;;;;;3.33;0.93;;;;;;;33.56;67.11;98717.94;1686420;84;21544;-64
2023/07/01 07:51:32;;;;;;;5.33;1.32;;;;;;;33.88;67.21;98711.91;1665287;84;21028;-64
2023/07/01 07:53:59;;;;;;;3.42;1.05;;;;;;;34.43;65.83;98713.77;1667843;84;21083;-66
2023/07/01 07:56:25;;;;;;;;;;;;;;;34.88;64.39;98714.03;1669216;84;21101;-64
2023/07/01 07:58:51;;;;;;;6.58;1.05;;;;;;;35.12;60.77;98712.37;1679477;84;20105;-63
2023/07/01 08:01:18;;;;;;;8.85;1.25;;;;;;;35.60;61.17;98705.23;1680169;84;21065;-64
2023/07/01 08:03:44;;;;;;;6.28;1.05;;;;;;;35.86;59.85;98703.49;1677606;84;21087;-64
2023/07/01 08:06:12;;;;;;;7.72;1.30;;;;;;;36.40;58.72;98707.86;1651043;84;21014;-64
2023/07/01 08:08:38;;;;;;;5.85;1.30;;;;;;;37.01;56.47;98710.81;1680789;84;21081;-64
2023/07/01 08:11:04;;;;;;;8.98;1.17;;;;;;;37.33;55.25;98702.92;1683043;84;21089;-64
2023/07/01 08:13:31;;;;;;;5.83;0.82;;;;;;;36.63;52.63;98712.04;1678008;84;21132;-63
2023/07/01 08:15:57;;;;;;;12.25;1.10;;;;;;;36.00;52.70;98701.94;1652863;84;21148;-64
2023/07/01 08:18:28;;;;;;;3.33;1.32;;;;;;;35.94;51.24;98691.32;1679937;84;21015;-63
2023/07/01 08:20:52;;;;;;;6.75;0.95;;;;;;;36.23;50.58;98699.91;1677028;84;21029;-63
2023/07/01 08:23:19;;;;;;;3.25;1.10;;;;;;;35.97;48.14;98695.68;1677508;84;21525;-64
2023/07/01 08:25:46;;;;;;;9.08;1.10;;;;;;;35.56;47.70;98690.53;1677253;84;21045;-63
2023/07/01 08:28:14;;;;;;;7.67;1.25;;;;;;;35.32;46.48;98690.87;1673689;84;21037;-64
2023/07/01 08:30:40;;;;;;;9.45;1.10;;;;;;;35.68;44.38;98695.21;1678779;84;21006;-62
2023/07/01 08:33:07;;;;;;;4.30;1.32;;;;;;;36.01;44.79;98694.61;1684173;83;21125;-62
2023/07/01 08:35:34;;;;;;;6.67;1.12;;;;;;;36.29;43.85;98691.50;1667263;84;21049;-62
2023/07/01 08:38:00;;;;;;;7.95;0.93;;;;;;;36.17;42.68;98693.64;1673120;84;20992;-61
2023/07/01 08:40:27;;;;;;;3.55;0.90;;;;;;;36.41;41.75;98690.45;1665433;85;21121;-61
2023/07/01 08:43:06;;;;;;;3.17;1.10;;;;;;;37.29;41.21;98687.69;1724698;82;21067;-64
2023/07/01 08:45:31;;;;;;;5.47;1.10;;;;;;;37.72;39.97;98692.85;1724345;82;21067;-62
2023/07/01 08:48:00;;;;;;;9.80;1.40;;;;;;;37.38;38.99;98690.68;1711722;83;21010;-64
2023/07/01 08:50:33;;;;;;;5.08;1.12;;;;;;;36.73;37.76;98691.14;1707194;83;21038;-61
2023/07/01 08:53:06;;;;;;;5.58;1.00;;;;;;;35.29;37.52;98686.48;1719636;82;21541;-62
2023/07/01 08:55:34;;;;;;;2.98;0.98;;;;;;;34.25;37.70;98689.69;1718128;82;21094;-62
2023/07/01 08:58:00;;;;;;;2.27;0.90;;;;;;;33.88;37.35;98690.25;1714971;82;21082;-63
2023/07/01 09:00:29;;;;;;;9.18;1.25;;;;;;;34.56;37.00;98681.95;1720523;82;20985;-63
2023/07/01 09:02:56;;;;;;;9.70;1.10;;;;;;;35.82;37.19;98682.00;1719668;82;20999;-68
2023/07/01 09:05:23;;;;;;;9.33;1.00;;;;;;;37.01;36.04;98683.60;1715468;82;21538;-63
2023/07/01 09:07:49;;;;;;;2.15;1.07;;;;;;;37.41;34.76;98683.33;1720284;82;20970;-64
2023/07/01 09:10:16;;;;;;;3.00;1.00;;;;;;;36.73;34.17;98676.73;1720112;82;21007;-64
2023/07/01 09:12:43;;;;;;;5.08;1.10;;;;;;;36.05;34.20;98674.03;1720191;82;21152;-63
2023/07/01 09:15:09;;;;;;;;;;;;;;;36.32;34.63;98677.11;1721113;82;21062;-63
2023/07/01 09:17:39;;;;;;;3.27;0.93;;;;;;;37.40;34.02;98666.73;1717536;82;20502;-64
2023/07/01 09:20:07;;;;;;;3.50;0.78;;;;;;;38.11;33.52;98660.34;1716227;82;20956;-64
2023/07/01 09:22:36;;;;;;;4.53;1.00;;;;;;;38.35;32.95;98663.25;1717673;82;20996;-64
2023/07/01 09:25:02;;;;;;;1.70;0.80;;;;;;;38.60;32.49;98653.33;1720112;82;21530;-64
2023/07/01 09:27:49;;;;;;;4.03;0.70;;;;;;;39.44;31.48;98638.23;1715982;82;20990;-63
2023/07/01 09:30:23;;;;;;;1.62;0.80;;;;;;;40.47;31.61;98653.73;1717814;82;21054;-63
2023/07/01 09:32:49;;;;;;;4.85;0.90;;;;;;;41.78;31.04;98653.84;1713474;82;21069;-64
2023/07/01 09:35:16;;;;;;;8.88;1.37;;;;;;;42.35;30.13;98640.66;1730770;81;21589;-63
2023/07/01 09:37:43;;;;;;;6.78;0.98;;;;;;;42.60;28.73;98650.25;1734332;81;21053;-63
2023/07/01 09:40:22;;;;;;;3.02;0.90;;;;;;;42.91;28.08;98642.13;1726479;81;21504;-63
2023/07/01 09:42:51;;;;;;;3.00;1.00;;;;;;;43.58;28.57;98644.56;1731918;81;21035;-63
2023/07/01 09:45:18;;;;;;;6.75;1.02;;;;;;;43.71;27.83;98636.79;1730417;81;21055;-65
2023/07/01 09:47:53;;;;;;;5.83;1.00;;;;;;;44.26;27.75;98631.96;1736088;81;21110;-65
2023/07/01 09:50:23;;;;;;;2.90;0.85;;;;;;;45.67;27.42;98635.09;1736598;81;21021;-64
2023/07/01 09:52:56;;;;;;;4.87;1.00;;;;;;;44.96;25.42;98628.12;1737289;81;21574;-64
2023/07/01 09:55:25;;;;;;;2.62;0.93;;;;;;;43.46;25.24;98625.09;1737893;81;21075;-65
2023/07/01 09:57:53;;;;;;;3.47;1.12;;;;;;;42.18;24.64;98632.21;1733119;81;21078;-66
2023/07/01 10:00:25;;;;;;;9.53;0.82;;;;;;;40.75;25.03;98632.03;1739342;81;21519;-63
2023/07/01 10:02:53;;;;;;;1.92;0.90;;;;;;;41.30;25.09;98625.40;1733179;81;21062;-63
2023/07/01 10:05:20;;;;;;;8.10;1.27;;;;;;;41.87;23.77;98624.59;1780671;76;21188;-62
2023/07/01 10:07:48;;;;;;;4.70;0.93;;;;;;;41.02;23.61;98621.19;1769446;79;21061;-63
2023/07/01 10:10:21;;;;;;;4.03;1.45;;;;;;;41.31;23.56;98608.65;1768553;79;21030;-63
2023/07/01 10:12:49;;;;;;;6.72;1.00;;;;;;;42.30;23.47;98607.83;1777370;79;21080;-63
2023/07/01 10:15:19;;;;;;;4.80;0.93;;;;;;;43.48;23.06;98602.24;1781739;79;21523;-63
2023/07/01 10:17:48;;;;;;;3.70;1.02;;;;;;;44.13;22.44;98603.45;1781793;79;21044;-63
2023/07/01 10:20:27;;;;;;;4.40;1.00;;;;;;;44.07;21.94;98596.49;1782814;79;21084;-65
2023/07/01 10:22:55;;;;;;;4.22;1.00;;;;;;;42.61;21.77;98603.84;1798132;78;20978;-64
2023/07/01 10:25:30;;;;;;;2.20;0.80;;;;;;;41.36;21.68;98597.61;1796654;79;20984;-63
2023/07/01 10:28:15;;;;;;;;;;;;;;;40.25;21.61;98589.52;1802367;78;21041;-63
2023/07/01 10:30:47;;;;;;;8.98;1.22;;;;;;;39.23;21.49;98589.27;1811551;78;20121;-62
2023/07/01 10:33:39;;;;;;;21.52;2.33;;;;;;;39.07;21.64;98584.52;1847547;76;20962;-63
2023/07/01 10:36:10;;;;;;;2.45;0.90;;;;;;;39.09;21.87;98581.48;1768213;79;20987;-64
2023/07/01 10:38:38;;;;;;;5.95;1.30;;;;;;;40.11;22.35;98577.66;1797956;78;21084;-65
2023/07/01 10:41:06;;;;;;;2.52;0.70;;;;;;;41.74;22.18;98577.47;1798496;78;21087;-64
2023/07/01 10:43:36;;;;;;;2.33;1.10;;;;;;;42.86;22.03;98576.36;1799333;78;20970;-65
2023/07/01 10:46:08;;;;;;;11.55;1.10;;;;;;;44.18;21.93;98579.34;1797212;78;21157;-64
2023/07/01 10:48:36;;;;;;;5.10;1.37;;;;;;;44.08;21.01;98576.91;1794764;78;21036;-65
2023/07/01 10:51:05;;;;;;;2.00;0.90;;;;;;;45.08;21.46;98567.65;1799067;78;21484;-65
2023/07/01 10:53:34;;;;;;;5.30;1.30;;;;;;;45.54;20.81;98574.34;1770811;79;21471;-64
2023/07/01 10:56:10;;;;;;;1.85;1.00;;;;;;;45.79;19.93;98563.48;1795472;78;20982;-63
2023/07/01 10:58:37;;;;;;;7.53;1.10;;;;;;;45.10;19.74;98565.38;1764215;79;20978;-63
2023/07/01 11:01:03;;;;;;;3.55;1.20;;;;;;;43.67;19.22;98555.30;1795748;78;21030;-60
2023/07/01 11:03:37;;;;;;;3.37;1.20;;;;;;;41.18;19.33;98566.21;1797699;78;21092;-62
2023/07/01 11:06:10;;;;;;;2.75;1.00;;;;;;;39.43;20.01;98554.69;1761242;79;21088;-63
2023/07/01 11:08:46;;;;;;;2.95;0.80;;;;;;;39.39;20.15;98553.91;1798395;78;21061;-64
2023/07/01 11:11:19;;;;;;;2.12;0.98;;;;;;;38.83;19.84;98548.95;1798578;78;21036;-62
2023/07/01 11:14:01;;;;;;;2.45;1.10;;;;;;;37.90;20.27;98545.16;1790371;78;21061;-62
2023/07/01 11:16:28;;;;;;;1.77;1.00;;;;;;;37.94;20.61;98543.49;1797184;78;21599;-62
2023/07/01 11:18:58;;;;;;;5.00;1.05;;;;;;;37.04;20.19;98541.58;1795058;78;22254;-62
2023/07/01 11:21:27;;;;;;;2.95;1.10;;;;;;;35.94;20.51;98540.58;1832211;76;21001;-65
2023/07/01 11:23:56;;;;;;;3.37;1.47;;;;;;;34.72;20.68;98540.08;1793361;78;21653;-63
2023/07/01 11:26:37;;;;;;;6.90;1.27;;;;;;;33.62;21.57;98537.52;1795842;78;21650;-62
2023/07/01 11:29:13;;;;;;;2.92;1.20;;;;;;;33.69;21.69;98537.31;1792220;78;21525;-63
2023/07/01 11:31:39;;;;;;;3.85;1.17;;;;;;;32.91;21.63;98548.05;1793602;78;21021;-65
2023/07/01 11:34:06;;;;;;;5.15;1.72;;;;;;;32.10;22.10;98540.16;1795627;78;21068;-61
2023/07/01 11:36:44;;;;;;;2.67;1.27;;;;;;;31.57;22.54;98541.21;1802290;78;20996;-62
2023/07/01 11:39:15;;;;;;;5.50;1.50;;;;;;;31.13;22.93;98534.81;1796299;78;21023;-61